createdAt,value
2022-09-24T00:00:29.651Z,9.07
2022-09-24T00:03:16.600Z,9.04
2022-09-24T00:05:56.676Z,9.00
2022-09-24T00:08:43.509Z,9.01
2022-09-24T00:11:30.529Z,8.97
2022-09-24T00:14:18.530Z,8.94
2022-09-24T00:16:58.633Z,8.96
2022-09-24T00:19:45.533Z,8.92
2022-09-24T00:22:25.673Z,8.98
2022-09-24T00:25:31.524Z,8.98
2022-09-24T00:28:11.754Z,8.97
2022-09-24T00:30:58.563Z,8.96
2022-09-24T00:33:38.581Z,8.95
2022-09-24T00:36:27.533Z,8.97
2022-09-24T00:39:07.575Z,8.94
2022-09-24T00:41:55.492Z,8.93
2022-09-24T00:44:47.571Z,8.89
2022-09-24T00:47:46.473Z,8.90
2022-09-24T00:50:47.503Z,8.92
2022-09-24T00:53:39.489Z,8.89
2022-09-24T00:56:28.508Z,8.89
2022-09-24T00:59:11.700Z,8.91
2022-09-24T01:02:05.523Z,8.84
2022-09-24T01:04:46.380Z,8.82
2022-09-24T01:07:33.449Z,8.81
2022-09-24T01:10:35.218Z,8.76
2022-09-24T01:13:53.489Z,8.74
2022-09-24T01:17:00.463Z,8.67
2022-09-24T01:19:47.426Z,8.64
2022-09-24T01:23:16.464Z,8.61
2022-09-24T01:26:43.416Z,8.60
2022-09-24T01:29:50.459Z,8.60
2022-09-24T01:33:06.445Z,8.61
2022-09-24T01:36:01.450Z,8.56
2022-09-24T01:38:48.503Z,8.55
2022-09-24T01:41:36.441Z,8.53
2022-09-24T01:44:25.445Z,8.50
2022-09-24T01:47:08.228Z,8.50
2022-09-24T01:49:55.429Z,8.44
2022-09-24T01:52:49.364Z,8.41
2022-09-24T01:55:40.422Z,8.38
2022-09-24T01:58:39.387Z,8.36
2022-09-24T02:01:25.559Z,8.28
2022-09-24T02:04:19.378Z,8.30
2022-09-24T02:07:16.551Z,8.21
2022-09-24T02:10:03.376Z,8.19
2022-09-24T02:12:54.343Z,8.23
2022-09-24T02:15:45.399Z,8.20
2022-09-24T02:18:30.428Z,8.19
2022-09-24T02:21:20.346Z,8.22
2022-09-24T02:24:18.336Z,8.29
2022-09-24T02:27:06.380Z,8.22
2022-09-24T02:29:53.349Z,8.18
2022-09-24T02:32:43.343Z,8.18
2022-09-24T02:35:23.477Z,8.22
2022-09-24T02:38:11.348Z,8.26
2022-09-24T02:40:51.835Z,8.21
2022-09-24T02:43:39.347Z,8.22
2022-09-24T02:46:19.507Z,8.19
2022-09-24T02:49:06.338Z,8.27
2022-09-24T02:51:47.421Z,8.29
2022-09-24T02:54:34.323Z,8.38
2022-09-24T02:57:14.640Z,8.50
2022-09-24T03:00:01.303Z,8.57
2022-09-24T03:02:41.417Z,8.68
2022-09-24T03:05:28.284Z,8.78
2022-09-24T03:26:04.605Z,8.12
2022-09-24T03:28:45.448Z,8.28
2022-09-24T03:31:32.648Z,8.40
2022-09-24T03:34:19.559Z,8.51
2022-09-24T03:36:59.715Z,8.55
2022-09-24T03:39:46.572Z,8.53
2022-09-24T03:42:33.552Z,8.55
2022-09-24T03:45:20.573Z,8.60
2022-09-24T03:48:00.660Z,8.52
2022-09-24T03:50:47.544Z,8.51
2022-09-24T03:53:34.538Z,8.49
2022-09-24T03:56:15.682Z,8.48
2022-09-24T03:59:02.530Z,8.48
2022-09-24T04:01:42.974Z,8.48
2022-09-24T04:04:29.554Z,8.50
2022-09-24T04:07:09.945Z,8.48
2022-09-24T04:09:56.523Z,8.45
2022-09-24T04:12:37.152Z,8.41
2022-09-24T04:15:24.541Z,8.42
2022-09-24T04:18:11.645Z,8.41
2022-09-24T04:20:52.543Z,8.38
2022-09-24T04:23:39.508Z,8.34
2022-09-24T04:26:21.113Z,8.29
2022-09-24T04:29:07.489Z,8.35
2022-09-24T04:31:54.567Z,8.43
2022-09-24T04:34:34.856Z,8.69
2022-09-24T04:37:21.487Z,8.80
2022-09-24T04:40:05.920Z,9.12
2022-09-24T04:42:54.530Z,9.69
2022-09-24T04:45:41.498Z,10.42
2022-09-24T04:48:28.442Z,11.29
2022-09-24T04:51:09.224Z,11.77
2022-09-24T04:53:57.484Z,12.16
2022-09-24T04:56:44.425Z,12.34
2022-09-24T04:59:24.605Z,12.82
2022-09-24T05:02:13.485Z,13.10
2022-09-24T05:04:53.561Z,13.70
2022-09-24T05:07:40.423Z,14.71
2022-09-24T05:10:27.407Z,15.12
2022-09-24T05:13:14.462Z,15.38
2022-09-24T05:16:01.507Z,15.70
2022-09-24T05:18:48.448Z,16.83
2022-09-24T05:21:28.543Z,16.89
2022-09-24T05:24:15.435Z,17.65
2022-09-24T05:27:10.979Z,17.66
2022-09-24T05:29:57.450Z,18.54
2022-09-24T05:32:44.407Z,18.84
2022-09-24T05:35:31.433Z,19.57
2022-09-24T05:38:11.497Z,19.86
2022-09-24T05:40:58.504Z,19.72
2022-09-24T05:43:45.434Z,20.47
2022-09-24T05:46:32.469Z,21.07
2022-09-24T05:49:12.527Z,20.89
2022-09-24T05:51:59.409Z,20.60
2022-09-24T05:54:46.381Z,22.17
2022-09-24T05:57:33.372Z,22.90
2022-09-24T06:00:21.415Z,21.15
2022-09-24T06:03:23.491Z,21.54
2022-09-24T06:06:10.403Z,21.63
2022-09-24T06:08:51.061Z,21.23
2022-09-24T06:11:41.424Z,21.14
2022-09-24T06:14:28.370Z,21.27
2022-09-24T06:17:08.439Z,21.20
2022-09-24T06:19:55.373Z,20.54
2022-09-24T06:22:35.444Z,20.84
2022-09-24T06:25:22.338Z,22.12
2022-09-24T06:28:14.374Z,23.31
2022-09-24T06:30:54.825Z,22.38
2022-09-24T06:33:41.364Z,22.88
2022-09-24T06:36:21.697Z,23.56
2022-09-24T06:39:08.386Z,24.17
2022-09-24T06:41:50.425Z,25.23
2022-09-24T06:44:37.352Z,24.24
2022-09-24T06:47:24.331Z,22.88
2022-09-24T06:50:04.493Z,24.24
2022-09-24T06:52:51.355Z,22.56
2022-09-24T06:55:31.395Z,23.16
2022-09-24T06:58:21.369Z,23.15
2022-09-24T07:01:03.564Z,24.65
2022-09-24T07:03:50.333Z,24.05
2022-09-24T07:06:50.327Z,24.33
2022-09-24T07:09:37.309Z,25.65
2022-09-24T07:12:24.333Z,24.24
2022-09-24T07:15:05.229Z,24.17
2022-09-24T07:17:52.301Z,26.30
2022-09-24T07:20:43.318Z,25.86
2022-09-24T07:23:23.449Z,24.99
2022-09-24T07:26:10.311Z,24.97
2022-09-24T07:28:50.418Z,25.90
2022-09-24T07:31:37.354Z,25.41
2022-09-24T07:34:17.396Z,26.67
2022-09-24T07:37:04.304Z,26.13
2022-09-24T07:39:52.285Z,25.51
2022-09-24T07:42:32.677Z,26.48
2022-09-24T07:45:19.267Z,25.36
2022-09-24T07:48:08.297Z,26.65
2022-09-24T07:50:49.767Z,28.04
2022-09-24T07:53:36.229Z,28.84
2022-09-24T07:56:23.261Z,28.27
2022-09-24T07:59:13.223Z,27.93
2022-09-24T08:01:53.939Z,27.52
2022-09-24T08:04:40.213Z,28.02
2022-09-24T08:07:27.264Z,28.06
2022-09-24T08:10:15.259Z,28.29
2022-09-24T08:12:57.075Z,29.51
2022-09-24T08:15:44.291Z,27.04
2022-09-24T08:18:31.249Z,27.17
2022-09-24T08:21:13.364Z,28.41
2022-09-24T08:24:00.432Z,27.85
2022-09-24T08:26:47.343Z,28.29
2022-09-24T08:29:27.251Z,29.11
2022-09-24T08:32:07.712Z,30.40
2022-09-24T08:34:54.228Z,29.00
2022-09-24T08:37:34.678Z,30.34
2022-09-24T08:40:31.248Z,29.47
2022-09-24T08:43:52.240Z,31.67
2022-09-24T08:47:13.265Z,32.12
2022-09-24T08:50:39.220Z,32.55
2022-09-24T08:53:45.236Z,32.81
2022-09-24T08:56:31.326Z,34.23
2022-09-24T08:59:31.176Z,34.13
2022-09-24T09:02:27.471Z,32.50
2022-09-24T09:05:38.192Z,33.31
2022-09-24T09:08:50.356Z,33.24
2022-09-24T09:11:40.213Z,32.28
2022-09-24T09:14:41.755Z,31.80
2022-09-24T09:17:38.149Z,30.64
2022-09-24T09:20:34.198Z,32.64
2022-09-24T09:23:33.286Z,34.49
2022-09-24T09:26:25.171Z,32.29
2022-09-24T09:29:06.387Z,34.28
2022-09-24T09:32:12.125Z,35.10
2022-09-24T09:34:59.163Z,33.23
2022-09-24T09:37:58.149Z,32.02
2022-09-24T09:41:00.280Z,33.73
2022-09-24T09:43:41.800Z,33.21
2022-09-24T09:46:38.206Z,33.14
2022-09-24T09:49:18.581Z,33.44
2022-09-24T09:52:10.197Z,35.58
2022-09-24T09:54:52.205Z,31.78
2022-09-24T09:57:39.166Z,33.62
2022-09-24T10:00:35.262Z,33.19
2022-09-24T10:04:09.351Z,32.88
2022-09-24T10:06:57.164Z,33.65
2022-09-24T10:09:38.371Z,36.22
2022-09-24T10:12:31.164Z,36.03
2022-09-24T10:15:22.276Z,34.04
2022-09-24T10:18:09.183Z,33.53
2022-09-24T10:20:54.618Z,35.34
2022-09-24T10:23:46.177Z,35.16
2022-09-24T10:26:33.148Z,32.67
2022-09-24T10:29:38.235Z,34.16
2022-09-24T10:32:34.121Z,32.38
2022-09-24T10:35:47.143Z,32.90
2022-09-24T10:38:31.724Z,31.82
2022-09-24T10:41:36.132Z,32.94
2022-09-24T10:44:18.244Z,33.96
2022-09-24T10:47:33.111Z,32.28
2022-09-24T10:50:30.186Z,34.42
2022-09-24T10:53:26.099Z,34.20
2022-09-24T10:56:28.119Z,35.40
2022-09-24T10:59:28.087Z,35.50
2022-09-24T11:02:27.142Z,33.99
2022-09-24T11:05:21.572Z,30.82
2022-09-24T11:08:36.093Z,30.40
2022-09-24T11:11:46.177Z,32.65
2022-09-24T11:15:21.992Z,33.23
2022-09-24T11:18:43.062Z,33.71
2022-09-24T11:26:58.102Z,29.46
2022-09-24T11:30:13.478Z,25.65
2022-09-24T11:33:52.372Z,24.14
2022-09-24T11:43:51.051Z,23.45
2022-09-24T11:47:14.078Z,24.72
2022-09-24T11:50:09.051Z,25.09
2022-09-24T11:53:04.054Z,23.60
2022-09-24T11:56:29.771Z,22.67
2022-09-24T12:04:05.090Z,22.20
2022-09-24T12:07:00.993Z,21.84
2022-09-24T12:10:04.990Z,21.19
2022-09-24T12:12:50.202Z,21.30
2022-09-24T12:15:34.027Z,21.15
2022-09-24T12:18:57.030Z,21.11
2022-09-24T12:21:48.012Z,21.11
2022-09-24T12:24:41.024Z,21.03
2022-09-24T12:27:45.012Z,20.86
2022-09-24T12:31:00.243Z,20.69
2022-09-24T12:34:09.025Z,20.82
2022-09-24T12:37:05.987Z,20.71
2022-09-24T12:39:57.728Z,20.65
2022-09-24T12:42:57.012Z,20.46
2022-09-24T12:45:37.089Z,20.54
2022-09-24T12:48:31.992Z,20.71
2022-09-24T12:51:21.010Z,20.83
2022-09-24T12:54:34.992Z,21.08
2022-09-24T12:57:27.057Z,20.95
2022-09-24T13:00:38.948Z,20.92
2022-09-24T13:03:37.109Z,20.95
2022-09-24T13:06:43.944Z,20.84
2022-09-24T13:09:42.947Z,21.10
2022-09-24T13:12:33.249Z,21.09
2022-09-24T13:15:35.056Z,20.72
2022-09-24T13:18:25.130Z,20.34
2022-09-24T13:21:17.962Z,20.25
2022-09-24T13:23:58.464Z,20.24
2022-09-24T13:26:46.899Z,20.01
2022-09-24T13:29:44.963Z,20.16
2022-09-24T13:32:35.943Z,20.22
2022-09-24T13:35:29.364Z,20.25
2022-09-24T13:38:30.919Z,20.18
2022-09-24T13:41:32.897Z,19.92
2022-09-24T13:44:29.999Z,20.08
2022-09-24T13:47:49.939Z,20.14
2022-09-24T13:50:38.894Z,20.03
2022-09-24T13:53:45.349Z,20.08
2022-09-24T13:56:32.926Z,19.94
2022-09-24T13:59:17.998Z,20.02
2022-09-24T14:02:04.926Z,20.08
2022-09-24T14:04:52.916Z,20.13
2022-09-24T14:07:39.987Z,20.12
2022-09-24T14:10:20.973Z,20.26
2022-09-24T14:13:30.953Z,20.07
2022-09-24T14:16:16.307Z,20.04
2022-09-24T14:19:12.915Z,20.07
2022-09-24T14:22:03.875Z,19.96
2022-09-24T14:24:59.886Z,19.98
2022-09-24T14:28:01.887Z,19.74
2022-09-24T14:30:55.534Z,19.58
2022-09-24T14:33:46.899Z,19.44
2022-09-24T14:36:29.318Z,19.28
2022-09-24T14:39:18.889Z,19.33
2022-09-24T14:41:59.322Z,19.36
2022-09-24T14:44:45.842Z,19.43
2022-09-24T14:47:29.086Z,19.59
2022-09-24T14:50:16.815Z,19.68
2022-09-24T14:53:04.870Z,19.62
2022-09-24T14:55:49.793Z,19.64
2022-09-24T14:58:36.847Z,19.55
2022-09-24T15:01:32.927Z,19.54
2022-09-24T15:04:29.862Z,19.48
2022-09-24T15:07:09.916Z,19.43
2022-09-24T15:10:02.969Z,19.22
2022-09-24T15:28:03.505Z,17.73
2022-09-24T15:30:44.924Z,17.76
2022-09-24T15:33:31.470Z,17.79
2022-09-24T15:36:18.487Z,17.87
2022-09-24T15:39:06.522Z,17.82
2022-09-24T15:41:47.055Z,17.88
2022-09-24T15:44:39.519Z,17.78
2022-09-24T15:47:26.567Z,17.77
2022-09-24T15:50:06.520Z,17.82
2022-09-24T15:52:51.597Z,17.72
2022-09-24T15:55:38.462Z,17.72
2022-09-24T15:58:19.744Z,17.68
2022-09-24T16:01:06.492Z,17.63
2022-09-24T16:03:46.910Z,17.61
2022-09-24T16:06:33.477Z,17.51
2022-09-24T16:09:20.499Z,17.41
2022-09-24T16:12:01.073Z,17.33
2022-09-24T16:14:47.464Z,17.19
2022-09-24T16:17:27.672Z,17.12
2022-09-24T16:20:16.458Z,17.04
2022-09-24T16:22:56.555Z,16.90
2022-09-24T16:25:43.465Z,16.77
2022-09-24T16:28:30.477Z,16.74
2022-09-24T16:31:10.862Z,16.59
2022-09-24T16:33:57.424Z,16.51
2022-09-24T16:36:38.332Z,16.41
2022-09-24T16:39:26.441Z,16.35
2022-09-24T16:42:06.795Z,16.20
2022-09-24T16:44:56.410Z,16.06
2022-09-24T16:47:43.451Z,15.89
2022-09-24T16:50:33.406Z,15.77
2022-09-24T16:53:13.759Z,15.63
2022-09-24T16:56:00.429Z,15.54
2022-09-24T16:58:57.429Z,15.32
2022-09-24T17:01:46.590Z,15.24
2022-09-24T17:04:34.259Z,15.20
2022-09-24T17:07:14.811Z,15.13
2022-09-24T17:10:19.442Z,15.09
2022-09-24T17:13:07.527Z,15.00
2022-09-24T17:15:47.650Z,14.98
2022-09-24T17:18:34.399Z,14.92
2022-09-24T17:21:18.075Z,14.87
2022-09-24T17:24:04.373Z,14.87
2022-09-24T17:26:58.406Z,14.81
2022-09-24T17:29:38.746Z,14.71
2022-09-24T17:32:25.391Z,14.68
2022-09-24T17:35:07.932Z,14.59
2022-09-24T17:37:54.380Z,14.58
2022-09-24T17:40:34.779Z,14.57
2022-09-24T17:43:21.355Z,14.58
2022-09-24T17:46:13.875Z,14.51
2022-09-24T17:48:59.561Z,14.45
2022-09-24T17:51:46.309Z,14.41
2022-09-24T17:54:33.343Z,14.41
2022-09-24T17:57:21.248Z,14.43
2022-09-24T18:00:01.348Z,14.46
2022-09-24T18:02:51.372Z,14.43
2022-09-24T18:05:31.491Z,14.51
2022-09-24T18:08:18.323Z,14.54
2022-09-24T18:11:15.316Z,14.40
2022-09-24T18:14:12.326Z,14.38
2022-09-24T18:16:52.932Z,14.27
2022-09-24T18:19:39.366Z,14.18
2022-09-24T18:22:26.336Z,14.18
2022-09-24T18:25:07.227Z,14.23
2022-09-24T18:27:54.310Z,14.22
2022-09-24T18:30:34.413Z,14.26
2022-09-24T18:33:22.325Z,14.28
2022-09-24T18:36:09.310Z,14.33
2022-09-24T18:38:49.882Z,14.43
2022-09-24T18:41:42.546Z,14.43
2022-09-24T18:44:22.714Z,14.34
2022-09-24T18:47:09.437Z,14.37
2022-09-24T18:49:56.293Z,14.37
2022-09-24T18:52:43.328Z,14.34
2022-09-24T18:55:23.666Z,14.26
2022-09-24T18:58:12.294Z,14.20
2022-09-24T19:01:04.409Z,14.05
2022-09-24T19:03:46.269Z,14.02
2022-09-24T19:06:28.134Z,13.98
2022-09-24T19:09:15.256Z,13.91
2022-09-24T19:11:56.085Z,13.83
2022-09-24T19:14:43.244Z,13.79
2022-09-24T19:17:23.936Z,13.70
2022-09-24T19:20:11.327Z,13.63
2022-09-24T19:22:59.941Z,13.60
2022-09-24T19:25:50.230Z,13.57
2022-09-24T19:28:37.382Z,13.62
2022-09-24T19:31:43.276Z,13.63
2022-09-24T19:34:23.712Z,13.57
2022-09-24T19:37:10.262Z,13.59
2022-09-24T19:39:51.007Z,13.57
2022-09-24T19:42:38.219Z,13.53
2022-09-24T19:45:18.662Z,13.47
2022-09-24T19:48:06.225Z,13.44
2022-09-24T19:50:46.625Z,13.41
2022-09-24T19:53:34.210Z,13.37
2022-09-24T19:56:23.285Z,13.40
2022-09-24T19:59:12.204Z,13.33
2022-09-24T20:01:52.700Z,13.15
2022-09-24T20:04:41.205Z,13.17
2022-09-24T20:07:28.215Z,13.12
2022-09-24T20:10:08.325Z,12.98
2022-09-24T20:12:58.194Z,12.91
2022-09-24T20:15:45.233Z,12.93
2022-09-24T20:18:25.969Z,12.88
2022-09-24T20:21:19.228Z,12.82
2022-09-24T20:24:08.304Z,12.70
2022-09-24T20:27:06.735Z,12.65
2022-09-24T20:29:55.179Z,12.61
2022-09-24T20:32:35.287Z,12.50
2022-09-24T20:35:22.203Z,12.46
2022-09-24T20:38:02.308Z,12.42
2022-09-24T20:40:50.184Z,12.37
2022-09-24T20:43:32.166Z,12.29
2022-09-24T20:46:23.221Z,12.30
2022-09-24T20:49:13.166Z,12.30
2022-09-24T20:51:57.386Z,12.32
2022-09-24T20:54:44.094Z,12.35
2022-09-24T20:57:31.167Z,12.32
2022-09-24T21:00:14.506Z,12.35
2022-09-24T21:03:10.735Z,12.38
2022-09-24T21:06:13.147Z,12.37
2022-09-24T21:09:00.142Z,12.35
2022-09-24T21:11:48.138Z,12.29
2022-09-24T21:14:28.980Z,12.16
2022-09-24T21:17:17.104Z,12.08
2022-09-24T21:20:04.674Z,12.04
2022-09-24T21:22:45.162Z,12.06
2022-09-24T21:25:52.361Z,11.95
2022-09-24T21:28:32.145Z,11.83
2022-09-24T21:31:14.097Z,11.73
2022-09-24T21:34:03.138Z,11.69
2022-09-24T21:36:52.224Z,11.66
2022-09-24T21:39:32.209Z,11.69
2022-09-24T21:42:19.101Z,11.58
2022-09-24T21:44:59.156Z,11.62
2022-09-24T21:47:46.101Z,11.63
2022-09-24T21:50:26.764Z,11.65
2022-09-24T21:53:15.079Z,11.72
2022-09-24T21:55:55.166Z,11.77
2022-09-24T21:58:42.087Z,11.89
2022-09-24T22:01:28.325Z,11.94
2022-09-24T22:04:15.086Z,11.97
2022-09-24T22:06:55.222Z,12.07
2022-09-24T22:09:42.017Z,11.95
2022-09-24T22:12:29.043Z,11.90
2022-09-24T22:15:17.042Z,11.91
2022-09-24T22:18:04.024Z,11.92
2022-09-24T22:20:51.107Z,11.95
2022-09-24T22:23:31.174Z,12.04
2022-09-24T22:26:20.054Z,12.05
2022-09-24T22:29:08.150Z,11.89
2022-09-24T22:31:48.014Z,11.85
2022-09-24T22:34:47.218Z,11.77
2022-09-24T22:37:34.024Z,11.56
2022-09-24T22:40:22.097Z,11.51
2022-09-24T22:43:02.081Z,11.48
2022-09-24T22:45:50.040Z,11.45
2022-09-24T22:48:30.131Z,11.34
2022-09-24T22:51:16.977Z,11.27
2022-09-24T22:54:04.113Z,11.31
2022-09-24T22:56:50.994Z,11.29
2022-09-24T22:59:37.995Z,11.26
2022-09-24T23:02:24.950Z,11.28
2022-09-24T23:05:12.050Z,11.27
2022-09-24T23:07:58.984Z,11.24
2022-09-24T23:10:39.078Z,11.12
2022-09-24T23:13:25.980Z,11.02
2022-09-24T23:16:15.093Z,11.02
2022-09-24T23:19:03.980Z,11.07
2022-09-24T23:21:44.228Z,11.02
2022-09-24T23:24:30.983Z,10.93
2022-09-24T23:27:24.959Z,10.94
2022-09-24T23:30:06.031Z,10.92
2022-09-24T23:32:52.941Z,10.90
2022-09-24T23:35:33.311Z,10.90
2022-09-24T23:38:19.942Z,10.85
2022-09-24T23:41:00.790Z,10.75
2022-09-24T23:43:47.937Z,10.71
2022-09-24T23:46:34.979Z,10.69
2022-09-24T23:49:22.040Z,10.70
2022-09-24T23:52:08.956Z,10.61
2022-09-24T23:54:55.879Z,10.60
2022-09-24T23:57:36.334Z,10.58
